DW7933 Weather Reports


time (UTC)temp
C
wind
direction
speed
KPH
gust
KPH
rain 1hr
cm
rain 24hr
cm
rain mn
cm
humidity
%
barometer
mb
20211026170123 20 337 11.3 19.3 0.00 0.00 0.00 73 1013.6
20211026164552 20 314 9.7 17.7 0.00 0.00 0.00 76 1014.0
20211026163058 19 330 8.0 20.9 0.00 0.00 0.00 78 1014.2
20211026161509 18 328 9.7 16.1 0.00 0.00 0.00 79 1014.5
20211026160006 18 324 6.4 14.5 0.00 0.00 0.00 79 1014.7
20211026154711 17 328 9.7 17.7 0.00 0.00 0.00 79 1014.7
20211026153053 17 357 3.2 11.3 0.00 0.00 0.00 79 1014.7
20211026151547 16 330 8.0 12.9 0.00 0.00 0.00 78 1015.1
20211026150115 16 312 9.7 16.1 0.00 0.00 0.00 77 1015.3
20211026144514 15 323 6.4 17.7 0.00 0.00 0.00 70 1015.3
20211026143014 15 321 8.0 14.5 0.00 0.00 0.00 72 1015.3
20211026141544 14 342 12.9 22.5 0.00 0.00 0.00 68 1015.3
20211026140129 14 5 8.0 14.5 0.00 0.00 0.00 63 1015.3
20211026134520 13 328 4.8 17.7 0.00 0.00 0.00 50 1015.1
20211026133025 13 336 11.3 20.9 0.00 0.00 0.00 48 1015.0
20211026131826 13 325 9.7 19.3 0.00 0.00 0.00 29 1014.9
20211026130118 12 316 4.8 11.3 0.00 0.00 0.00 11 1014.8
20211026124620 12 321 4.8 9.7 0.00 0.00 0.00 11 1014.6
20211026123106 11 343 3.2 9.7 0.00 0.00 0.00 11 1014.4
20211026121518 11 329 3.2 9.7 0.00 0.00 0.00 11 1014.3
20211026120023 11 330 3.2 6.4 0.00 0.00 0.00 11 1014.1
20211026114628 12 314 4.8 12.9 0.00 0.00 0.00 11 1014.0
20211026113140 12 307 3.2 9.7 0.00 0.00 0.00 11 1014.0
20211026111540 12 336 4.8 11.3 0.00 0.00 0.00 11 1013.8
20211026110042 12 332 4.8 14.5 0.00 0.00 0.00 11 1013.7
20211026104522 13 338 4.8 11.3 0.00 0.00 0.00 11 1013.5
20211026103008 13 338 6.4 11.3 0.00 0.00 0.00 11 1013.3
20211026100119 14 343 3.2 14.5 0.00 0.00 0.00 11 1013.1
20211026094617 15 335 3.2 11.3 0.00 0.00 0.00 11 1013.0
20211026093034 15 328 1.6 9.7 0.00 0.00 0.00 11 1012.8
20211026091540 15 326 4.8 11.3 0.00 0.00 0.00 11 1012.6
20211026090151 15 338 9.7 14.5 0.00 0.00 0.00 11 1012.4
20211026084634 16 323 8.0 16.1 0.00 0.00 0.00 11 1012.3
20211026083048 16 328 11.3 19.3 0.00 0.00 0.00 11 1012.2
20211026081539 16 350 0.0 9.7 0.00 0.00 0.00 11 1012.2
20211026080013 16 321 3.2 9.7 0.00 0.00 0.00 11 1012.0
20211026074513 16 331 1.6 8.0 0.00 0.00 0.00 11 1011.9
20211026073146 16 321 0.0 4.8 0.00 0.00 0.00 11 1011.9
20211026071819 16 321 0.0 6.4 0.00 0.00 0.00 11 1012.0
20211026070104 17 314 0.0 4.8 0.00 0.00 0.00 11 1012.1
20211026064646 17 300 0.0 0.0 0.00 0.00 0.00 11 1012.0
20211026063045 17 311 0.0 0.0 0.00 0.00 0.00 11 1012.0
20211026061554 17 328 0.0 0.0 0.00 0.00 0.00 11 1012.0
20211026060046 17 314 0.0 0.0 0.00 0.00 0.00 11 1012.1
20211026054530 18 302 0.0 0.0 0.00 0.00 0.00 11 1012.2
20211026053117 18 316 0.0 0.0 0.00 0.00 0.00 11 1012.1
20211026051541 18 309 0.0 0.0 0.00 0.00 0.00 11 1012.2
20211026050042 18 300 0.0 0.0 0.00 0.00 0.00 11 1012.2
20211026044510 17 302 0.0 0.0 0.00 0.00 0.00 11 1012.2
20211026043059 17 302 0.0 0.0 0.00 0.00 0.00 11 1012.2
20211026041628 17 302 0.0 0.0 0.00 0.00 0.00 11 1012.1
20211026040117 17 302 0.0 0.0 0.00 0.00 0.00 11 1012.1
20211026034544 18 302 0.0 0.0 0.00 0.00 0.00 11 1012.0
20211026033035 19 302 0.0 0.0 0.00 0.00 0.00 11 1012.1
20211026031521 19 319 0.0 0.0 0.00 0.00 0.00 11 1012.2
20211026030251 18 309 0.0 0.0 0.00 0.00 0.00 11 1012.2
20211026024640 18 309 0.0 0.0 0.00 0.00 0.00 11 1012.0
20211026023112 19 309 0.0 0.0 0.00 0.00 0.00 11 1012.1
20211026021610 20 309 0.0 0.0 0.00 0.00 0.00 11 1012.0
20211026020023 20 309 0.0 0.0 0.00 0.00 0.00 11 1011.9
20211026014526 21 309 0.0 0.0 0.00 0.00 0.00 11 1011.9
20211026013007 21 323 0.0 0.0 0.00 0.00 0.00 11 1011.8
20211026011508 21 308 0.0 0.0 0.00 0.00 0.00 11 1011.8
20211026010026 21 307 0.0 0.0 0.00 0.00 0.00 11 1011.8
20211026004506 21 312 0.0 0.0 0.00 0.00 0.00 11 1011.6
20211026003005 21 309 0.0 0.0 0.00 0.00 0.00 11 1011.3
20211026001523 21 309 0.0 0.0 0.00 0.00 0.00 11 1011.1
20211026000013 22 309 0.0 0.0 0.00 0.00 0.00 11 1010.9
20211025234509 22 309 0.0 0.0 0.00 0.00 0.00 11 1010.7
20211025233004 23 309 0.0 0.0 0.00 0.00 0.00 33 1010.3
20211025231501 24 309 0.0 0.0 0.00 0.00 0.00 53 1010.2
20211025230111 25 309 0.0 0.0 0.00 0.00 0.00 63 1009.9
20211025224709 26 295 0.0 6.4 0.00 0.00 0.00 73 1009.7
20211025223047 26 293 3.2 9.7 0.00 0.00 0.00 76 1009.6
20211025221649 27 291 4.8 11.3 0.00 0.00 0.00 77 1009.7
20211025220025 27 302 6.4 11.3 0.00 0.00 0.00 77 1009.4
20211025214525 27 290 8.0 19.3 0.00 0.00 0.00 77 1009.5
20211025213003 28 335 8.0 17.7 0.00 0.00 0.00 77 1009.4
20211025211507 27 321 6.4 11.3 0.00 0.00 0.00 75 1009.6
20211025210116 27 302 4.8 12.9 0.00 0.00 0.00 76 1009.7
20211025204608 28 288 8.0 19.3 0.00 0.00 0.00 77 1009.8
20211025203129 28 276 9.7 16.1 0.00 0.00 0.00 76 1009.8
20211025201540 27 328 8.0 17.7 0.00 0.00 0.00 73 1010.0
20211025200004 27 305 11.3 16.1 0.00 0.00 0.00 75 1010.0
20211025193052 27 266 6.4 19.3 0.00 0.00 0.00 76 1009.9
20211025191545 27 278 8.0 12.9 0.00 0.00 0.00 73 1010.1
20211025190027 26 298 9.7 14.5 0.00 0.00 0.00 71 1010.3
20211025184545 26 295 9.7 22.5 0.00 0.00 0.00 69 1010.7
20211025183346 26 319 9.7 19.3 0.00 0.00 0.00 70 1010.7
20211025181614 26 305 9.7 19.3 0.00 0.00 0.00 69 1010.8
20211025180045 27 306 9.7 14.5 0.00 0.00 0.00 72 1010.9
20211025174617 27 235 4.8 17.7 0.00 0.00 0.00 70 1011.2
20211025173008 26 248 6.4 19.3 0.00 0.00 0.00 63 1011.9
20211025171501 26 294 4.8 12.9 0.00 0.00 0.00 54 1012.1